Stevensville, MT (59870)

11:46 PM MST on February 13, 2016 (GMT -0700)
SteviBigSky | | Change Station
CLOSE
Current Station
Personal Weather Station
Location: Stevensville, MT
Elevation: 3415 ft
Nearby Weather Stations

Elev 3415 ft 46.49 °N, 114.07 °W | Updated 4 minutes ago

Overcast
Overcast
38.8 °F
Feels Like 34 °F
N
6.5
Wind Variable Wind from South
Gusts 7.4 mph

Today
High -- | Low -- °F
--% Chance of Precip.
Yesterday
High -- | Low -- °F
Precip. -- in
Pressure 30.14 in
Visibility 10.0 miles
Clouds Overcast 7000 ft
Windchill 34 °F
Dew Point 27 °F
Humidity 62%
Rainfall 0.07 in
Snow Depth Not available.
7:43 AM 5:57 PM
Waxing Crescent, 38% visible
METAR KMSO 140553Z AUTO 00000KT 10SM OVC070 03/M03 A3007 RMK AO2 SLP204 T00281028 10056 20028 58019 TSNO $
Pressure 30.14 in
Visibility 10.0 miles
Clouds Overcast 7000 ft
Windchill 34 °F
Dew Point 27 °F
Humidity 62%
Rainfall 0.07 in
Snow Depth Not available.
7:43 AM 5:57 PM
Waxing Crescent, 38% visible
METAR KMSO 140553Z AUTO 00000KT 10SM OVC070 03/M03 A3007 RMK AO2 SLP204 T00281028 10056 20028 58019 TSNO $

10-Day Weather Forecast

Almanac

Astronomy

Feb. 13, 2016 Rise Set
Actual Time
Civil Twilight
Nautical Twilight
Astronomical Twilight
Moon
Length of Visible Light
Length of Day
Tomorrow will be .
, % of the Moon is Illuminated

Today's Extremes

State Highs State Lows

Community

WunderPhotos

Upload Photos

1,892,757 photos uploaded!

WunderBlog® & News

Nearby

Air Quality

  Air Quality AQ Index Pollutant
Not available.

Snow Depth

Station Depth Elevation

Earthquake Activity

City Distance Mag. Time & Date
Minimum magnitude displayed is 2.5.

Coastal Water Temperatures

Place Temperature

Stations

Nearby Weather Stations

Station Location Temp. Windchill Dew Point Humidity Wind Precip. Elev Updated Type
                   

Watches & Warnings

There are currently no watches in effect.